WEATHER DATA

YESTERDAY
Time Temp. Dewp. Hum. Wind dir Wind speed Wind gust Bar. 1h Prec. 24h Prec.
00:09 6.7 4.4 85 200 1.1 3.6 1019 0.0000 0.0000
00:18 6.6 4.3 85 195 1.1 1.9 1019.1 0.0000 0.0000
00:29 6.5 4.2 85 191 0.8 2.5 1019 0.0000 0.0000
00:39 6.4 4.1 85 195 1.1 2.5 1019.1 0.0000 0.0000
00:49 6.3 4 85 181 1.1 2.5 1019.1 0.0000 0.0000
00:59 6.2 3.9 85 198 0.8 1.9 1019 0.0000 0.0000
01:09 6.2 3.9 85 191 0.8 2.5 1019 0.0000 0.0000
01:19 6.1 3.8 85 195 0.8 1.7 1019 0.0000 0.0000
01:29 6 3.7 85 197 0.8 1.7 1019 0.0000 0.0000
01:39 5.9 3.6 85 198 0.8 1.7 1019 0.0000 0.0000
01:50 5.8 3.5 85 209 0.8 1.7 1019 0.0000 0.0000
01:59 5.7 3.4 85 198 0.8 1.7 1018.9 0.0000 0.0000
02:09 5.6 3.3 85 186 0.8 1.9 1019 0.0000 0.0000
02:20 5.5 3.3 86 194 1.1 2.5 1018.9 0.0000 0.0000
02:30 5.4 3.2 86 185 1.1 2.5 1018.8 0.0000 0.0000
02:40 5.3 3.2 86 211 1.7 3.3 1018.7 0.0000 0.0000
02:50 5.1 2.8 85 205 1.7 4.2 1018.6 0.0000 0.0000
03:00 5.1 2.8 85 193 1.7 3.3 1018.5 0.0000 0.0000
03:10 5 2.9 86 194 1.1 3.3 1018.4 0.0000 0.0000
03:20 4.9 2.8 86 202 1.1 3.3 1018.3 0.0000 0.0000
03:31 4.8 2.7 86 202 1.1 3.3 1018.1 0.0000 0.0000
03:40 4.8 2.7 86 199 1.7 4.2 1018.1 0.0000 0.0000
03:50 4.7 2.6 86 208 1.9 3.6 1018.1 0.0000 0.0000
04:00 4.6 2.5 86 206 1.7 4.2 1018 0.0000 0.0000
04:11 4.5 2.4 86 206 1.1 2.5 1018 0.0000 0.0000
04:21 4.5 2.4 86 212 1.7 2.8 1018 0.0000 0.0000
04:30 4.4 2.3 86 217 1.1 2.8 1018 0.0000 0.0000
04:41 4.3 2.2 86 216 1.7 3.3 1018.1 0.0000 0.0000
04:51 4.2 2.1 86 220 1.7 3.3 1018 0.0000 0.0000
05:01 4.1 2 86 218 1.1 2.5 1018.1 0.0000 0.0000
05:11 4 2 87 215 1.7 2.8 1018 0.0000 0.0000
05:21 3.9 1.8 86 218 1.7 3.6 1018 0.0000 0.0000
05:31 3.8 1.8 87 221 1.1 2.5 1018 0.0000 0.0000
05:41 3.7 1.7 87 209 1.1 2.8 1017.9 0.0000 0.0000
05:52 3.6 1.6 87 207 1.1 1.9 1017.8 0.0000 0.0000
06:02 3.5 1.5 87 217 1.1 2.5 1017.9 0.0000 0.0000
06:11 3.5 1.5 87 189 1.1 1.9 1017.9 0.0000 0.0000
06:21 3.4 1.4 87 216 1.1 2.5 1017.8 0.0000 0.0000
06:32 3.4 1.4 87 218 1.1 2.5 1017.9 0.0000 0.0000
06:42 3.3 1.3 87 196 1.1 1.9 1017.9 0.0000 0.0000
06:52 3.2 1.2 87 194 1.1 2.5 1017.9 0.0000 0.0000
07:02 3.2 1.2 87 215 1.1 2.5 1017.9 0.0000 0.0000
07:12 3.2 1.2 87 216 1.1 2.5 1018 0.0000 0.0000
07:32 3.2 1.4 88 229 0.8 1.9 1018.1 0.0000 0.0000
07:43 3.3 1.5 88 225 0.8 2.5 1018.1 0.0000 0.0000
07:53 3.3 1.5 88 225 0.8 1.7 1018.2 0.0000 0.0000
08:02 3.3 1.5 88 270 0.3 1.1 1018.3 0.0000 0.0000
08:13 3.5 1.7 88 188 0.8 1.7 1018.2 0.0000 0.0000
08:23 3.6 1.8 88 211 1.7 4.4 1018.2 0.0000 0.0000
08:33 3.7 1.9 88 230 3.3 5.3 1018.3 0.0000 0.0000
08:43 3.8 2 88 234 4.4 7.5 1018.3 0.0000 0.0000
08:53 3.9 2.1 88 230 5.3 8.3 1018.2 0.0000 0.0000
09:03 4 2.2 88 219 5 8.9 1018.3 0.0000 0.0000
09:13 4.1 2.3 88 216 5 8.3 1018.2 0.0000 0.0000
09:23 4.3 2.5 88 210 5 9.4 1018.1 0.0000 0.0000
09:34 4.5 2.7 88 208 5.3 9.4 1018.1 0.0000 0.0000
09:43 4.7 2.9 88 205 5.3 11.1 1018.1 0.0000 0.0000
09:53 4.9 3.2 89 207 3.6 10.6 1018.1 0.0000 0.0000
10:04 5.1 3.4 89 164 3.3 8.6 1018.1 0.0000 0.0000
10:14 5.3 3.6 89 200 2.8 5.3 1018 0.0000 0.0000
10:24 5.5 3.8 89 141 3.3 6.9 1017.9 0.0000 0.0000
10:34 5.7 4 89 142 3.6 9.4 1017.8 0.0000 0.0000
10:45 5.9 4.2 89 135 2.8 9.4 1017.7 0.0000 0.0000
10:55 6.1 4.4 89 136 3.6 10.3 1017.7 0.0000 0.0000
11:05 6.3 4.5 88 137 3.3 7.5 1017.6 0.0000 0.0000
11:13 6.4 4.6 88 143 3.3 9.7 1017.6 0.0000 0.0000
11:23 6.6 4.9 89 159 3.6 7.5 1017.5 0.0000 0.0000
11:31 6.7 4.9 88 167 3.6 11.1 1017.6 0.0000 0.0000
11:41 6.9 5.1 88 169 3.6 9.4 1017.5 0.0000 0.0000
11:50 7.1 5.2 88 176 3.3 7.5 1017.4 0.0000 0.0000
11:57 7.3 5.3 87 162 3.6 11.9 1017.4 0.0000 0.0000
12:08 7.5 5.3 86 175 3.3 10.6 1017.2 0.0000 0.0000
12:19 7.7 5.5 86 200 3.6 10.3 1017 0.0000 0.0000
12:28 7.9 5.5 85 253 3.3 6.1 1017 0.0000 0.0000
12:38 8.1 5.6 84 221 3.3 6.9 1016.9 0.0000 0.0000
12:49 8.2 5.5 83 251 2.8 5.8 1016.8 0.0000 0.0000
12:59 8.5 5.6 82 252 3.3 6.9 1016.8 0.0000 0.0000
13:09 8.7 5.6 81 238 3.3 6.7 1016.5 0.0000 0.0000
13:18 8.8 5.7 81 242 3.6 7.8 1016.3 0.0000 0.0000
13:29 9 5.9 81 250 3.3 7.5 1016.1 0.0000 0.0000
13:39 9.1 6.2 82 243 3.3 6.1 1016.1 0.0000 0.0000
13:49 9.3 6.6 83 242 2.5 4.2 1016 0.0000 0.0000
13:59 9.4 6.8 84 236 3.3 5.3 1015.9 0.0000 0.0000
14:09 9.6 7 84 234 2.8 5.8 1015.7 0.0000 0.0000
14:19 9.7 7 83 235 3.3 6.1 1015.5 0.0000 0.0000
14:29 9.9 7 82 242 2.8 5.8 1015.4 0.0000 0.0000
14:40 10.1 6.8 80 244 2.8 5.8 1015.3 0.0000 0.0000
14:49 10.2 6.9 80 236 3.6 5.3 1015.2 0.0000 0.0000
14:59 10.4 6.9 79 238 3.6 6.7 1015.1 0.0000 0.0000
15:10 10.5 7 79 236 3.6 6.1 1014.9 0.0000 0.0000
15:20 10.6 6.9 78 240 4.2 8.3 1014.8 0.0000 0.0000
15:30 10.7 7 78 236 3.3 5.8 1014.7 0.0000 0.0000
15:39 10.8 7.1 78 252 2.8 6.1 1014.7 0.0000 0.0000
15:50 10.9 7.2 78 245 3.6 6.1 1014.6 0.0000 0.0000
16:00 11 7.3 78 241 3.6 7.5 1014.5 0.0000 0.0000
16:10 11 7.3 78 243 3.6 6.1 1014.5 0.0000 0.0000
16:20 11.1 7.2 77 240 3.6 6.7 1014.3 0.0000 0.0000
16:30 11.1 7 76 248 3.3 6.1 1014.3 0.0000 0.0000
16:40 11.1 6.8 75 262 2.8 6.1 1014.2 0.0000 0.0000
16:50 11.1 6.6 74 225 2.8 6.7 1014.2 0.0000 0.0000
16:57 11.1 6.6 74 175 3.6 11.1 1014.1 0.0000 0.0000
17:07 11 6.4 73 155 3.6 8.3 1014 0.0000 0.0000
17:18 10.9 6.5 74 140 3.6 9.4 1014 0.0000 0.0000
17:27 10.9 6.5 74 173 3.3 7.8 1014 0.0000 0.0000
17:37 10.8 6.4 74 213 3.3 6.9 1014 0.0000 0.0000
17:54 10.6 6.4 75 218 4.2 13.6 1013.9 0.0000 0.0000
18:03 10.6 6.6 76 222 4.2 7.5 1013.9 0.0000 0.0000
18:13 10.5 6.5 76 214 4.2 6.7 1014 0.0000 0.0000
18:23 10.4 6.5 77 227 4.2 8.3 1013.9 0.0000 0.0000
18:34 10.2 6.5 78 233 5 7.8 1013.8 0.0000 0.0000
18:44 10 6.5 79 240 4.4 6.9 1013.8 0.0000 0.0000
18:54 9.7 6.4 80 240 3.3 5.3 1013.7 0.0000 0.0000
18:59 9.6 6.3 80 232 3.3 11.4 1013.6 0.0000 0.0000
19:09 9.4 6.3 81 222 5.3 7.5 1013.6 0.0000 0.0000
19:19 9.2 6.1 81 216 5.3 8.6 1013.6 0.0000 0.0000
19:29 9.1 6 81 223 5.3 8.3 1013.5 0.0000 0.0000
19:40 8.9 5.8 81 227 4.4 6.9 1013.5 0.0000 0.0000
19:49 8.8 5.7 81 236 3.6 6.1 1013.4 0.0000 0.0000
19:59 8.6 5.5 81 232 3.6 6.1 1013.4 0.0000 0.0000
20:09 8.5 5.4 81 231 3.6 6.7 1013.5 0.0000 0.0000
20:20 8.4 5.3 81 225 2.8 4.4 1013.5 0.0000 0.0000
20:30 8.2 5.1 81 219 2.8 4.2 1013.6 0.0000 0.0000
20:39 8.2 5.1 81 207 2.5 4.2 1013.6 0.0000 0.0000
20:50 8 4.9 81 209 2.5 4.2 1013.6 0.0000 0.0000
21:00 7.9 4.8 81 206 1.9 3.6 1013.5 0.0000 0.0000
21:10 7.8 4.7 81 203 1.9 3.6 1013.5 0.0000 0.0000
21:20 7.7 4.7 81 190 1.7 3.3 1013.4 0.0000 0.0000
21:31 7.5 4.5 81 202 1.1 2.8 1013.4 0.0000 0.0000
21:40 7.5 4.5 81 201 1.1 3.3 1013.4 0.0000 0.0000
21:50 7.4 4.4 81 199 1.1 2.5 1013.4 0.0000 0.0000
22:01 7.3 4.3 81 175 0.8 1.9 1013.3 0.0000 0.0000
22:11 7.1 4.1 81 194 0.8 1.7 1013.4 0.0000 0.0000
22:21 7 4 81 207 0.3 1.1 1013.3 0.0000 0.0000
22:30 7 4 81 187 0.3 0.8 1013.3 0.0000 0.0000
22:41 6.9 3.9 81 124 0.3 1.1 1013.2 0.0000 0.0000
22:51 6.8 3.8 81 122 0.3 0.8 1013.1 0.0000 0.0000
23:01 6.7 3.7 81 167 0.3 0.8 1013.1 0.0000 0.0000
23:11 6.5 3.5 81 315 0.3 0.8 1013.1 0.0000 0.0000
23:22 6.4 3.6 82 196 0.8 1.9 1013.1 0.0000 0.0000
23:31 6.2 3.4 82 225 0.3 0.8 1013.2 0.0000 0.0000
23:41 6 3.2 82 233 0.8 1.1 1013.2 0.0000 0.0000
23:52 5.9 3.1 82 225 0.3 1.1 1013.2 0.0000 0.0000

DAY STATISTIC

2019-02-18
TEMPERATURE
AVERAGE
6.9
HIGH
11.1
16:20
LOW
3.2
06:52
PRESSURE
AVERAGE
1016.3
HIGH
1019.1
00:18
LOW
1013.1
22:51
DEWPOINT
AVERAGE
4.3
HIGH
7.3
16:00
LOW
1.2
06:52
HUMIDITY
AVERAGE
83
HIGH
89
09:53
LOW
73
17:07
WIND SPEED
AVERAGE
2.4
HIGH
5.3
08:53
WIND GUST
AVERAGE
5.1
HIGH
13.6
17:54
WIND DIRECTION
PREVAILING
SW
55.6%
N
0.0
NE
0.0
E
0.0
SE
7.0
S
31.0
SW
55.6
W
5.6
NW
0.7
PRECIPITATION
RAIN HOUR
0.0
RAIN DAY
0.0
TEMPERATURE (°C)
LOW
3.2
HIGH
11.1
AVERAGE
6.9
PRESSURE (hpa)
LOW
1013.1
HIGH
1019.1
AVERAGE
1016.3
DEVICE